Time;durP1;ratioP1;P1;durP2;ratioP2;P2;SDS_P1;SDS_P2;PMS_P1;PMS_P2;Temp;Humidity;BMP_temperature;BMP_pressure;BME280_temperature;BME280_humidity;BME280_pressure;Samples;Min_cycle;Max_cycle;Signal;HPM_P1;HPM_P2
2021/11/01 00:01:29;;;;;;;0.85;0.43;;;;;;;13.42;90.21;99611.72;6247515;28;20424;-76
2021/11/01 00:04:31;;;;;;;2.72;0.30;;;;;;;13.40;91.75;99626.03;6246552;28;20041;-76
2021/11/01 00:07:32;;;;;;;1.17;0.52;;;;;;;13.35;92.90;99625.53;6246773;28;20054;-76
2021/11/01 00:10:34;;;;;;;0.43;0.30;;;;;;;13.31;93.50;99624.97;6246637;28;20053;-76
2021/11/01 00:13:36;;;;;;;3.95;0.85;;;;;;;13.32;94.27;99615.25;6246442;28;20045;-76
2021/11/01 00:16:40;;;;;;;5.88;0.63;;;;;;;13.18;96.95;99606.66;6246553;28;20059;-76
2021/11/01 00:19:41;;;;;;;4.47;1.00;;;;;;;12.98;100.00;99609.22;6246698;28;20073;-75
2021/11/01 00:22:43;;;;;;;3.03;0.50;;;;;;;12.68;100.00;99602.84;6246559;28;20410;-75
2021/11/01 00:25:44;;;;;;;3.40;0.43;;;;;;;12.59;100.00;99611.50;6246120;28;20057;-76
2021/11/01 00:28:46;;;;;;;3.78;0.55;;;;;;;12.39;100.00;99613.06;6246462;28;20073;-76
2021/11/01 00:31:49;;;;;;;2.75;1.45;;;;;;;12.32;100.00;99618.00;6249314;28;20428;-76
2021/11/01 00:34:50;;;;;;;2.45;1.35;;;;;;;12.26;100.00;99613.19;6270736;28;20045;-75
2021/11/01 00:37:52;;;;;;;5.15;0.80;;;;;;;12.22;100.00;99624.09;6271127;28;20052;-75
2021/11/01 00:40:53;;;;;;;0.63;0.30;;;;;;;12.17;100.00;99640.25;6260677;28;20417;-75
2021/11/01 00:43:54;;;;;;;2.53;0.32;;;;;;;12.12;100.00;99642.41;6245943;28;20168;-76
2021/11/01 00:46:58;;;;;;;0.63;0.30;;;;;;;12.07;100.00;99653.28;6246350;28;20049;-76
2021/11/01 00:50:00;;;;;;;0.57;0.45;;;;;;;12.03;100.00;99661.56;6247830;28;20049;-76
2021/11/01 00:53:02;;;;;;;7.75;0.40;;;;;;;12.00;100.00;99649.47;6250770;28;20064;-75
2021/11/01 00:56:04;;;;;;;0.30;0.25;;;;;;;11.91;100.00;99626.50;6250258;28;20057;-76
2021/11/01 00:59:06;;;;;;;0.20;0.20;;;;;;;11.88;100.00;99626.72;6250804;28;20412;-76
2021/11/01 01:02:10;;;;;;;4.38;1.65;;;;;;;11.82;100.00;99619.25;6253323;28;20045;-75
2021/11/01 01:05:12;;;;;;;3.83;0.40;;;;;;;11.81;100.00;99604.41;6275162;28;20041;-75
2021/11/01 01:08:14;;;;;;;1.17;0.35;;;;;;;11.81;100.00;99591.25;6274995;28;20423;-75
2021/11/01 01:11:16;;;;;;;1.98;0.50;;;;;;;11.74;100.00;99598.78;6275220;28;20107;-75
2021/11/01 01:14:25;;;;;;;3.53;1.63;;;;;;;11.69;100.00;99588.59;6274726;28;20056;-75
2021/11/01 01:17:28;;;;;;;;;;;;;;;11.66;100.00;99609.03;6275464;28;20090;-76
2021/11/01 01:20:30;;;;;;;1.77;0.52;;;;;;;11.62;100.00;99604.97;6274901;28;19920;-76
2021/11/01 01:23:31;;;;;;;1.88;0.73;;;;;;;11.60;100.00;99610.38;6274475;28;20049;-75
2021/11/01 01:26:33;;;;;;;1.00;0.40;;;;;;;11.57;100.00;99607.94;6274743;28;20045;-75
2021/11/01 01:29:35;;;;;;;1.17;0.32;;;;;;;11.55;100.00;99603.78;6274840;28;20092;-75
2021/11/01 01:32:38;;;;;;;4.03;0.32;;;;;;;11.54;100.00;99602.09;6273101;28;20045;-75
2021/11/01 01:35:40;;;;;;;1.35;0.43;;;;;;;11.55;100.00;99607.25;6274150;28;20424;-76
2021/11/01 01:38:42;;;;;;;0.55;0.43;;;;;;;11.54;100.00;99605.56;6274624;28;20049;-76
2021/11/01 01:41:46;;;;;;;6.72;0.38;;;;;;;11.49;100.00;99598.97;6274310;28;20049;-75
2021/11/01 01:44:47;;;;;;;4.25;0.82;;;;;;;11.50;100.00;99598.88;6274234;28;20622;-75
2021/11/01 01:47:50;;;;;;;4.55;0.60;;;;;;;11.48;100.00;99605.19;6274218;28;20045;-75
2021/11/01 01:50:52;;;;;;;1.02;0.52;;;;;;;11.51;100.00;99611.06;6274539;28;20403;-76
2021/11/01 01:53:53;;;;;;;8.85;1.02;;;;;;;11.48;100.00;99613.06;6273856;28;20496;-76
2021/11/01 01:56:54;;;;;;;4.78;0.70;;;;;;;11.43;100.00;99606.38;6274130;28;20051;-75
2021/11/01 01:59:56;;;;;;;1.20;0.45;;;;;;;11.35;100.00;99592.94;6274183;28;20045;-76
2021/11/01 02:03:00;;;;;;;1.58;0.60;;;;;;;11.34;100.00;99601.78;6270195;28;20424;-76
2021/11/01 02:06:07;;;;;;;3.42;0.52;;;;;;;11.33;100.00;99604.53;6248909;28;20512;-75
2021/11/01 02:09:13;;;;;;;7.25;0.57;;;;;;;11.29;100.00;99592.56;6248918;28;20107;-75
2021/11/01 02:12:19;;;;;;;4.80;0.43;;;;;;;11.27;100.00;99589.22;6249162;28;20057;-76
2021/11/01 02:15:24;;;;;;;1.65;0.50;;;;;;;11.28;100.00;99596.16;6248532;28;20420;-76
2021/11/01 02:18:30;;;;;;;1.95;0.52;;;;;;;11.23;100.00;99593.03;6248843;28;20496;-76
2021/11/01 02:21:44;;;;;;;0.63;0.50;;;;;;;11.14;100.00;99602.44;6248927;28;20053;-76
2021/11/01 02:24:55;;;;;;;2.10;0.50;;;;;;;11.12;100.00;99593.81;6248585;28;20413;-76
2021/11/01 02:27:58;;;;;;;3.13;0.68;;;;;;;11.13;100.00;99593.72;6248453;28;20416;-75
2021/11/01 02:31:01;;;;;;;4.15;1.10;;;;;;;11.07;100.00;99583.66;6248570;28;20049;-75
2021/11/01 02:34:04;;;;;;;2.05;0.60;;;;;;;11.05;100.00;99584.72;6254192;28;20503;-76
2021/11/01 02:37:05;;;;;;;4.85;0.77;;;;;;;11.11;100.00;99589.53;6273168;28;20053;-76
2021/11/01 02:40:08;;;;;;;1.25;0.95;;;;;;;11.04;100.00;99591.78;6273096;28;20511;-76
2021/11/01 02:43:12;;;;;;;1.35;0.88;;;;;;;11.01;100.00;99589.38;6273044;28;20057;-76
2021/11/01 02:46:13;;;;;;;6.75;1.23;;;;;;;11.01;100.00;99591.16;6272739;28;20119;-76
2021/11/01 02:49:14;;;;;;;3.20;0.73;;;;;;;10.99;100.00;99585.16;6273012;28;20049;-76
2021/11/01 02:52:16;;;;;;;0.60;0.52;;;;;;;10.97;100.00;99590.53;6272960;28;20424;-75
2021/11/01 02:55:19;;;;;;;1.60;0.68;;;;;;;10.93;100.00;99586.44;6272795;28;20049;-76
2021/11/01 02:58:21;;;;;;;1.50;0.90;;;;;;;10.93;100.00;99589.91;6272712;28;20063;-76
2021/11/01 03:01:23;;;;;;;1.25;0.90;;;;;;;10.91;100.00;99597.09;6272995;28;20072;-77
2021/11/01 03:04:25;;;;;;;1.65;0.93;;;;;;;10.95;100.00;99599.50;6270662;28;20049;-76
2021/11/01 03:07:27;;;;;;;4.55;0.95;;;;;;;10.91;100.00;99604.16;6272334;28;20049;-77
2021/11/01 03:10:29;;;;;;;2.38;0.80;;;;;;;10.89;100.00;99604.22;6272514;28;20049;-76
2021/11/01 03:13:35;;;;;;;1.50;0.70;;;;;;;10.88;100.00;99607.81;6271866;28;20075;-76
2021/11/01 03:16:36;;;;;;;1.98;0.88;;;;;;;10.88;100.00;99614.88;6272095;28;20488;-75
2021/11/01 03:19:41;;;;;;;7.00;1.33;;;;;;;10.82;100.00;99613.53;6272102;28;20049;-76
2021/11/01 03:22:45;;;;;;;4.15;1.33;;;;;;;10.81;100.00;99617.13;6271951;28;20045;-75
2021/11/01 03:25:57;;;;;;;4.93;1.38;;;;;;;10.81;100.00;99622.38;6271629;28;20056;-76
2021/11/01 03:29:03;;;;;;;1.95;0.80;;;;;;;10.84;100.00;99624.75;6271919;28;20079;-75
2021/11/01 03:32:07;;;;;;;2.42;1.15;;;;;;;10.80;100.00;99625.94;6272095;28;20408;-76
2021/11/01 03:35:09;;;;;;;1.95;1.15;;;;;;;10.79;100.00;99624.25;6255911;28;20045;-75
2021/11/01 03:38:12;;;;;;;1.98;1.23;;;;;;;10.80;100.00;99615.41;6271676;28;20056;-76
2021/11/01 03:41:16;;;;;;;4.90;1.25;;;;;;;10.82;100.00;99620.59;6272007;28;20056;-75
2021/11/01 03:44:19;;;;;;;5.53;1.38;;;;;;;10.81;100.00;99617.13;6271258;28;20044;-76
2021/11/01 03:47:24;;;;;;;4.45;1.40;;;;;;;10.89;100.00;99629.69;6271775;28;20053;-77
2021/11/01 03:50:31;;;;;;;5.63;1.73;;;;;;;10.82;100.00;99624.03;6271732;28;20053;-77
2021/11/01 03:53:33;;;;;;;4.03;1.42;;;;;;;10.84;100.00;99624.75;6271576;28;20060;-76
2021/11/01 03:56:35;;;;;;;1.38;0.93;;;;;;;10.81;100.00;99625.00;6271758;28;20056;-76
2021/11/01 03:59:39;;;;;;;3.92;1.25;;;;;;;10.84;100.00;99623.91;6271681;28;20045;-76
2021/11/01 04:02:44;;;;;;;5.90;1.45;;;;;;;10.80;100.00;99619.84;6271433;28;20420;-76
2021/11/01 04:05:46;;;;;;;3.45;1.50;;;;;;;10.77;100.00;99625.34;6269238;28;20041;-75
2021/11/01 04:08:48;;;;;;;3.08;1.55;;;;;;;10.81;100.00;99629.38;6271407;28;20056;-76
2021/11/01 04:11:51;;;;;;;1.45;0.98;;;;;;;10.82;100.00;99623.22;6269837;28;20049;-75
2021/11/01 04:14:58;;;;;;;4.85;0.90;;;;;;;10.75;100.00;99635.09;6271197;28;20045;-76
2021/11/01 04:18:03;;;;;;;3.88;1.60;;;;;;;10.78;100.00;99621.75;6271190;28;20056;-76
2021/11/01 04:21:08;;;;;;;4.28;1.10;;;;;;;10.78;100.00;99638.34;6270353;28;20053;-75
2021/11/01 04:24:11;;;;;;;1.88;0.88;;;;;;;10.77;100.00;99630.59;6270890;28;20045;-76
2021/11/01 04:27:12;;;;;;;4.13;0.88;;;;;;;10.73;100.00;99629.13;6275321;28;20059;-76
2021/11/01 04:30:15;;;;;;;6.38;1.17;;;;;;;10.75;100.00;99638.56;6275307;28;20052;-76
2021/11/01 04:33:20;;;;;;;3.53;0.73;;;;;;;10.70;100.00;99637.22;6274147;28;20049;-77
2021/11/01 04:36:22;;;;;;;3.22;1.05;;;;;;;10.72;100.00;99638.81;6272639;28;20093;-76
2021/11/01 04:39:31;;;;;;;3.90;0.75;;;;;;;10.69;100.00;99628.50;6274876;28;20187;-75
2021/11/01 04:52:59;;;;;;;2.75;0.68;;;;;;;10.68;100.00;99626.84;6275183;28;20056;-76
2021/11/01 04:56:01;;;;;;;2.45;0.95;;;;;;;10.68;100.00;99631.25;6275077;28;20049;-78
2021/11/01 04:59:02;;;;;;;1.67;0.82;;;;;;;10.63;100.00;99634.22;6275124;28;20048;-76
2021/11/01 05:02:05;;;;;;;2.08;1.20;;;;;;;10.64;100.00;99628.00;6269661;28;20049;-76
2021/11/01 05:05:09;;;;;;;1.08;0.50;;;;;;;10.65;100.00;99630.50;6270601;28;20052;-76
2021/11/01 05:08:11;;;;;;;0.35;0.35;;;;;;;10.63;100.00;99626.31;6262970;28;20508;-78
2021/11/01 05:11:21;;;;;;;0.60;0.30;;;;;;;10.60;100.00;99629.16;6266247;28;20128;-77
2021/11/01 05:14:29;;;;;;;1.92;0.50;;;;;;;10.65;100.00;99629.66;6270188;28;20045;-79
2021/11/01 05:17:44;;;;;;;7.17;0.90;;;;;;;10.65;100.00;99630.50;6290526;23;20460;-80
2021/11/01 05:20:50;;;;;;;3.85;0.55;;;;;;;10.56;100.00;99623.28;6249971;28;20081;-80
2021/11/01 05:23:55;;;;;;;0.98;0.40;;;;;;;10.55;100.00;99632.13;6250667;28;20045;-80
2021/11/01 05:27:20;;;;;;;5.03;0.60;;;;;;;10.54;100.00;99622.56;6248891;28;20052;-80
2021/11/01 05:30:26;;;;;;;1.58;0.82;;;;;;;10.54;100.00;99624.34;6202157;28;20050;-80
2021/11/01 05:33:50;;;;;;;5.20;0.90;;;;;;;10.54;100.00;99621.72;6201638;28;20061;-80
2021/11/01 05:36:52;;;;;;;0.63;0.50;;;;;;;10.45;100.00;99611.88;6222905;28;20053;-80
2021/11/01 05:39:53;;;;;;;1.48;0.32;;;;;;;10.49;100.00;99613.31;6225852;28;20061;-79
2021/11/01 05:42:55;;;;;;;3.50;0.60;;;;;;;10.40;100.00;99605.16;6225835;28;20053;-79
2021/11/01 05:45:56;;;;;;;0.52;0.35;;;;;;;10.46;100.00;99608.28;6226095;28;20054;-80
2021/11/01 05:48:59;;;;;;;0.22;0.20;;;;;;;10.40;100.00;99613.03;6226003;28;20108;-80
2021/11/01 05:52:04;;;;;;;0.80;0.40;;;;;;;10.40;100.00;99617.44;6225498;28;20046;-80
2021/11/01 05:55:13;;;;;;;5.13;1.05;;;;;;;10.40;100.00;99617.44;6225329;28;20481;-79
2021/11/01 05:58:19;;;;;;;1.48;0.63;;;;;;;10.37;100.00;99626.38;6224801;28;20107;-79
2021/11/01 06:01:40;;;;;;;5.50;0.98;;;;;;;10.39;100.00;99626.25;6225289;28;20489;-79
2021/11/01 06:05:00;;;;;;;0.20;0.20;;;;;;;10.35;100.00;99623.00;6224815;28;20045;-80
2021/11/01 06:14:47;;;;;;;1.65;1.08;;;;;;;10.32;100.00;99628.50;6224601;28;20042;-78
2021/11/01 06:17:48;;;;;;;9.35;1.25;;;;;;;10.29;100.00;99639.19;6224867;28;20053;-79
2021/11/01 06:20:51;;;;;;;2.15;0.60;;;;;;;10.24;100.00;99648.31;6225485;28;20514;-79
2021/11/01 06:23:54;;;;;;;1.35;0.40;;;;;;;10.24;100.00;99658.81;6225010;28;20045;-79
2021/11/01 06:26:56;;;;;;;8.70;0.80;;;;;;;10.21;100.00;99653.78;6225485;28;20129;-79
2021/11/01 06:30:06;;;;;;;1.52;1.00;;;;;;;10.20;100.00;99671.31;6225537;28;20050;-79
2021/11/01 06:39:54;;;;;;;2.00;0.40;;;;;;;10.14;100.00;99666.50;6226196;28;20062;-79
2021/11/01 06:43:06;;;;;;;1.77;0.40;;;;;;;10.14;100.00;99661.25;6225517;28;20096;-80
2021/11/01 06:49:55;;;;;;;2.08;0.30;;;;;;;10.10;100.00;99679.00;6148178;29;20047;-80
2021/11/01 06:53:20;;;;;;;2.38;0.60;;;;;;;10.11;100.00;99683.28;6148822;28;20051;-79
2021/11/01 07:16:34;;;;;;;0.35;0.30;;;;;;;10.33;100.00;99690.56;6223404;28;20050;-80
2021/11/01 07:19:51;;;;;;;4.38;1.27;;;;;;;10.34;100.00;99688.78;6223510;28;20140;-79
2021/11/01 07:23:29;;;;;;;1.38;0.45;;;;;;;10.34;100.00;99697.50;6222609;28;20046;-79
2021/11/01 08:23:43;;;;;;;0.68;0.45;;;;;;;10.83;100.00;99698.47;6223951;28;20449;-79
2021/11/01 08:27:16;;;;;;;1.70;0.40;;;;;;;10.88;99.92;99704.22;6221073;28;20490;-79
2021/11/01 08:37:17;;;;;;;0.93;0.43;;;;;;;10.84;99.43;99698.34;6223330;28;20054;-78
2021/11/01 08:40:31;;;;;;;3.22;0.30;;;;;;;10.88;98.74;99697.19;6223444;28;20425;-79
2021/11/01 08:43:54;;;;;;;1.30;0.35;;;;;;;10.97;98.04;99715.88;6222341;28;20045;-79
2021/11/01 08:50:57;;;;;;;1.73;0.68;;;;;;;11.03;96.81;99711.00;6293855;27;20360;-78
2021/11/01 09:04:07;;;;;;;3.03;0.20;;;;;;;11.31;93.64;99707.25;6289535;28;20045;-80
2021/11/01 09:20:35;;;;;;;;;;;;;;;11.67;89.29;99729.16;6292909;28;20053;-79
2021/11/01 09:23:45;;;;;;;4.20;0.25;;;;;;;11.67;88.87;99734.41;6279433;28;19920;-76
2021/11/01 09:26:48;;;;;;;1.80;0.20;;;;;;;11.76;87.92;99719.72;6293483;28;20075;-81
2021/11/01 09:30:04;;;;;;;0.35;0.35;;;;;;;11.78;87.46;99728.38;6292732;28;20063;-80
2021/11/01 09:36:34;;;;;;;0.30;0.30;;;;;;;11.72;88.22;99728.81;6289779;28;20041;-80
2021/11/01 09:43:04;;;;;;;1.42;0.60;;;;;;;11.56;88.86;99726.47;6291623;28;20052;-81
2021/11/01 09:46:10;;;;;;;1.45;0.40;;;;;;;11.65;85.58;99731.06;6292862;28;20155;-80
2021/11/01 09:49:15;;;;;;;0.95;0.50;;;;;;;11.73;85.75;99735.78;6292654;28;20064;-81
2021/11/01 09:52:16;;;;;;;2.15;0.60;;;;;;;11.69;85.97;99735.16;6293564;28;20049;-79
2021/11/01 09:55:38;;;;;;;1.23;0.30;;;;;;;11.74;86.58;99732.19;6293392;28;20059;-81
2021/11/01 10:02:00;;;;;;;7.22;0.63;;;;;;;11.73;85.30;99752.41;6278697;28;20081;-80
2021/11/01 10:05:03;;;;;;;2.78;0.77;;;;;;;11.75;85.35;99744.38;6277583;28;20057;-81
2021/11/01 10:08:16;;;;;;;2.50;0.17;;;;;;;11.76;85.13;99732.88;6278058;28;20057;-81
2021/11/01 10:11:24;;;;;;;0.85;0.40;;;;;;;11.75;86.86;99739.94;6278441;28;20539;-81
2021/11/01 10:14:26;;;;;;;2.58;0.40;;;;;;;11.77;86.54;99734.59;6286696;28;20048;-81
2021/11/01 10:17:36;;;;;;;0.88;0.40;;;;;;;11.75;86.08;99736.47;6286947;28;20071;-80
2021/11/01 10:20:42;;;;;;;3.05;0.40;;;;;;;11.85;87.83;99740.13;6270969;28;20134;-80
2021/11/01 10:23:50;;;;;;;1.95;0.65;;;;;;;11.80;85.08;99740.44;6270353;28;20048;-80
2021/11/01 10:26:54;;;;;;;3.95;0.30;;;;;;;11.86;85.17;99734.78;6276355;28;20053;-78
2021/11/01 10:29:57;;;;;;;1.23;0.77;;;;;;;11.87;85.32;99741.72;6275010;28;20044;-78
2021/11/01 10:33:01;;;;;;;1.70;0.70;;;;;;;11.89;84.27;99749.47;6274676;28;20140;-78
2021/11/01 10:36:02;;;;;;;2.20;0.57;;;;;;;11.85;85.55;99738.34;6274666;28;20045;-78
2021/11/01 10:39:07;;;;;;;1.90;0.45;;;;;;;11.96;84.43;99728.81;6276075;28;20048;-78
2021/11/01 10:42:18;;;;;;;4.53;0.45;;;;;;;11.98;85.10;99735.63;6274352;28;20049;-78
2021/11/01 10:45:32;;;;;;;3.28;0.50;;;;;;;11.99;85.07;99734.69;6273689;28;20059;-78
2021/11/01 11:12:04;;;;;;;3.22;0.73;;;;;;;12.78;79.22;99713.69;6297484;28;20052;-77
2021/11/01 11:15:11;;;;;;;0.40;0.40;;;;;;;13.01;79.71;99712.69;6298913;28;20058;-78
2021/11/01 11:18:33;;;;;;;3.15;0.50;;;;;;;13.13;78.84;99706.44;6298696;22;20053;-72
2021/11/01 11:25:04;;;;;;;0.90;0.52;;;;;;;12.95;76.69;99705.28;6272647;28;20139;-70
2021/11/01 11:28:14;;;;;;;5.60;0.50;;;;;;;13.03;75.87;99694.09;6272441;28;20056;-71
2021/11/01 11:31:42;;;;;;;0.65;0.30;;;;;;;13.31;76.38;99700.66;6231949;28;20050;-70
2021/11/01 11:38:36;;;;;;;1.00;0.30;;;;;;;13.77;73.72;99681.88;6241216;28;20049;-71
2021/11/01 11:48:36;;;;;;;0.80;0.45;;;;;;;14.15;73.19;99680.41;6221286;28;20046;-71
2021/11/01 11:51:40;;;;;;;2.17;0.40;;;;;;;14.23;69.13;99682.41;6266667;28;20423;-72
2021/11/01 11:54:44;;;;;;;0.55;0.40;;;;;;;14.11;68.54;99682.47;6258648;28;20454;-70
2021/11/01 11:57:58;;;;;;;0.93;0.30;;;;;;;13.93;69.00;99678.75;6272218;28;20057;-72
2021/11/01 12:00:59;;;;;;;1.85;0.40;;;;;;;13.96;69.49;99681.97;6251847;28;20529;-72
2021/11/01 12:04:04;;;;;;;0.82;0.50;;;;;;;13.82;70.74;99692.88;6247277;28;20049;-72
2021/11/01 12:07:07;;;;;;;1.80;0.38;;;;;;;14.02;71.91;99685.91;6245235;28;20046;-71
2021/11/01 12:10:19;;;;;;;1.20;0.50;;;;;;;14.03;70.10;99684.94;6247311;28;20042;-72
2021/11/01 12:13:53;;;;;;;0.45;0.45;;;;;;;14.06;70.67;99684.69;6247050;28;20060;-71
2021/11/01 12:17:08;;;;;;;1.35;0.40;;;;;;;14.05;68.11;99682.19;6222301;28;20046;-71
2021/11/01 12:20:11;;;;;;;0.30;0.30;;;;;;;14.09;67.82;99681.78;6222821;28;20046;-72
2021/11/01 12:23:13;;;;;;;3.33;0.38;;;;;;;14.23;68.03;99671.84;6222169;28;20054;-73
2021/11/01 12:26:16;;;;;;;0.40;0.40;;;;;;;14.37;65.64;99693.47;6234791;28;20523;-71
2021/11/01 12:29:18;;;;;;;6.68;0.70;;;;;;;14.30;65.12;99679.09;6246695;28;20705;-72
2021/11/01 12:32:20;;;;;;;1.75;0.40;;;;;;;14.10;64.61;99675.53;6247048;28;20052;-71
2021/11/01 12:35:26;;;;;;;0.73;0.30;;;;;;;14.05;64.35;99674.25;6246631;28;20049;-71
2021/11/01 12:38:37;;;;;;;2.60;0.70;;;;;;;14.06;65.92;99670.63;6246245;28;20051;-70
2021/11/01 12:41:49;;;;;;;4.88;0.38;;;;;;;14.13;64.81;99685.00;6246858;28;20073;-71
2021/11/01 12:48:48;;;;;;;0.50;0.50;;;;;;;14.34;65.57;99685.78;6222266;28;20132;-71
2021/11/01 12:58:37;;;;;;;1.25;0.57;;;;;;;14.55;64.61;99693.72;6246272;28;20128;-72
2021/11/01 13:01:50;;;;;;;1.33;0.40;;;;;;;14.75;65.32;99675.28;6246566;28;20053;-72
2021/11/01 13:04:51;;;;;;;0.60;0.50;;;;;;;14.83;64.88;99683.38;6246214;28;20053;-71
2021/11/01 13:07:57;;;;;;;0.60;0.30;;;;;;;14.62;64.75;99689.56;6246537;28;20053;-72
2021/11/01 13:11:02;;;;;;;0.32;0.32;;;;;;;13.99;66.24;99688.81;6246530;28;20140;-73
2021/11/01 13:17:54;;;;;;;2.83;0.63;;;;;;;14.35;65.28;99695.41;6238605;28;20045;-74
2021/11/01 13:20:58;;;;;;;0.30;0.30;;;;;;;14.71;63.08;99696.69;6246426;28;20246;-72
2021/11/01 13:24:04;;;;;;;0.70;0.30;;;;;;;14.61;64.42;99693.19;6237685;28;20673;-73
2021/11/01 13:27:26;;;;;;;1.00;0.40;;;;;;;14.69;62.91;99700.44;6230266;28;20076;-73
2021/11/01 13:37:32;;;;;;;1.25;0.40;;;;;;;14.11;66.17;99708.06;6226165;28;20058;-72
2021/11/01 13:40:38;;;;;;;1.65;0.55;;;;;;;14.10;68.32;99717.81;6231338;28;20120;-74
2021/11/01 13:43:39;;;;;;;3.13;1.45;;;;;;;13.99;65.90;99706.44;6250424;28;20049;-73
2021/11/01 13:46:45;;;;;;;1.45;0.47;;;;;;;13.77;66.79;99702.16;6249119;28;20041;-72
2021/11/01 13:49:49;;;;;;;1.30;0.82;;;;;;;13.63;67.39;99704.13;6250294;28;20046;-73
2021/11/01 13:53:02;;;;;;;1.40;0.88;;;;;;;13.57;67.57;99699.34;6250365;28;20061;-73
2021/11/01 13:56:21;;;;;;;1.05;0.40;;;;;;;13.61;65.69;99708.69;6249655;28;20128;-73
2021/11/01 13:59:35;;;;;;;0.57;0.50;;;;;;;13.60;64.19;99707.03;6250243;28;20056;-72
2021/11/01 14:12:47;;;;;;;0.35;0.35;;;;;;;13.26;66.14;99711.56;6249935;28;20054;-69
2021/11/01 14:16:16;;;;;;;0.52;0.30;;;;;;;13.07;67.80;99720.09;6248347;28;20050;-71
2021/11/01 14:27:01;;;;;;;1.55;0.30;;;;;;;12.90;68.89;99728.53;6244957;28;20049;-71
2021/11/01 14:29:30;;;;;;;0.30;0.30;;;;;;;12.89;68.09;99727.66;6224706;28;20054;-72
2021/11/01 14:33:00;;;;;;;0.40;0.40;;;;;;;12.90;69.96;99733.81;6225035;28;20478;-71
2021/11/01 15:10:20;;;;;;;3.75;0.68;;;;;;;12.65;75.57;99725.19;6282740;28;20048;-73
2021/11/01 15:13:35;;;;;;;1.75;0.55;;;;;;;12.59;76.88;99727.47;6291297;28;20488;-73
2021/11/01 15:16:47;;;;;;;1.88;0.70;;;;;;;12.59;76.45;99732.75;6292746;28;20439;-73
2021/11/01 15:20:03;;;;;;;1.45;0.50;;;;;;;12.54;78.29;99735.75;6292836;28;20057;-73
2021/11/01 15:23:15;;;;;;;1.73;0.50;;;;;;;12.47;78.05;99733.69;6292280;28;20045;-73
2021/11/01 15:33:16;;;;;;;0.50;0.30;;;;;;;12.42;77.02;99741.94;6267012;28;20042;-73
2021/11/01 16:19:54;;;;;;;1.88;0.70;;;;;;;11.83;85.55;99769.22;6318062;28;20370;-74
2021/11/01 16:23:10;;;;;;;2.03;0.70;;;;;;;11.84;82.36;99768.25;6317779;28;20052;-74
2021/11/01 16:26:20;;;;;;;2.17;0.80;;;;;;;11.81;84.52;99762.34;6316185;28;20044;-74
2021/11/01 16:29:28;;;;;;;0.40;0.40;;;;;;;11.78;83.65;99775.75;6317866;28;20048;-74
2021/11/01 16:32:34;;;;;;;0.55;0.52;;;;;;;11.76;84.50;99767.09;6318029;28;20504;-74
2021/11/01 16:35:40;;;;;;;0.73;0.50;;;;;;;11.69;84.36;99774.63;6317593;28;20063;-74
2021/11/01 16:38:50;;;;;;;2.15;0.68;;;;;;;11.68;83.60;99773.78;6317727;28;20044;-73
2021/11/01 16:41:53;;;;;;;1.02;0.50;;;;;;;11.67;85.87;99777.38;6317742;28;20059;-73
2021/11/01 16:44:56;;;;;;;0.52;0.47;;;;;;;11.65;84.11;99775.81;6317510;28;20094;-73
2021/11/01 16:47:59;;;;;;;3.60;0.90;;;;;;;11.60;85.44;99778.78;6317392;28;20045;-73
2021/11/01 16:51:02;;;;;;;5.38;0.68;;;;;;;11.56;86.24;99782.56;6317551;28;20524;-73
2021/11/01 16:54:04;;;;;;;0.52;0.52;;;;;;;11.48;85.98;99784.09;6313684;28;20048;-73
2021/11/01 16:57:11;;;;;;;1.75;0.70;;;;;;;11.41;85.65;99789.78;6292244;28;20044;-73
2021/11/01 17:00:28;;;;;;;4.40;0.40;;;;;;;11.43;85.55;99789.69;6292266;28;20057;-73
2021/11/01 17:03:36;;;;;;;0.52;0.45;;;;;;;11.38;85.41;99790.00;6292022;28;20094;-73
2021/11/01 17:06:43;;;;;;;0.88;0.50;;;;;;;11.42;83.58;99786.22;6291917;28;20072;-73
2021/11/01 17:23:28;;;;;;;1.65;0.70;;;;;;;11.25;85.76;99789.22;6291407;28;20060;-73
2021/11/01 17:26:42;;;;;;;2.00;0.98;;;;;;;11.21;86.82;99779.00;6299906;28;20174;-73
2021/11/01 17:36:55;;;;;;;0.60;0.60;;;;;;;11.12;89.78;99781.34;6297809;28;20048;-73
2021/11/01 18:37:24;;;;;;;2.10;0.80;;;;;;;10.41;94.20;99816.94;6289261;28;20084;-73
2021/11/01 18:53:45;;;;;;;6.60;2.35;;;;;;;10.09;95.35;99820.84;6284440;28;20084;-72
2021/11/01 18:56:48;;;;;;;4.70;1.33;;;;;;;10.04;95.13;99812.44;6271155;28;20182;-73
2021/11/01 18:59:52;;;;;;;6.72;1.55;;;;;;;9.97;96.49;99811.16;6283929;28;20047;-73
2021/11/01 19:02:57;;;;;;;4.35;1.25;;;;;;;9.90;97.14;99822.06;6281690;28;20060;-72
2021/11/01 19:06:05;;;;;;;1.35;0.77;;;;;;;9.80;97.78;99812.25;6278394;28;20055;-72
2021/11/01 19:09:19;;;;;;;2.83;0.80;;;;;;;9.76;97.22;99811.59;6297430;28;20056;-72
2021/11/01 20:05:53;;;;;;;1.65;0.80;;;;;;;9.54;98.93;99822.66;6270262;28;20076;-73
2021/11/01 20:09:46;;;;;;;1.65;0.90;;;;;;;9.52;98.36;99818.44;6282761;28;20041;-72
2021/11/01 20:13:02;;;;;;;4.00;1.30;;;;;;;9.49;97.50;99821.25;6281473;28;20423;-72
2021/11/01 21:26:39;;;;;;;4.05;1.00;;;;;;;8.46;100.00;99831.97;6286032;28;20045;-71
2021/11/01 21:29:41;;;;;;;1.08;0.80;;;;;;;8.38;100.00;99824.56;6287481;28;20048;-71
2021/11/01 21:32:45;;;;;;;2.20;1.33;;;;;;;8.28;100.00;99829.47;6278229;28;20695;-72
2021/11/01 21:35:48;;;;;;;2.95;1.17;;;;;;;8.23;100.00;99826.28;6285765;28;20047;-71
2021/11/01 21:38:50;;;;;;;5.97;1.05;;;;;;;8.22;100.00;99819.38;6281192;28;20044;-71
2021/11/01 21:41:51;;;;;;;2.58;1.15;;;;;;;8.23;100.00;99822.81;6283178;28;20052;-72
2021/11/01 21:44:53;;;;;;;4.85;1.33;;;;;;;8.19;100.00;99819.53;6281901;28;20048;-70
2021/11/01 21:47:55;;;;;;;2.05;0.85;;;;;;;8.16;100.00;99814.47;6285145;28;20565;-71
2021/11/01 21:50:57;;;;;;;6.25;1.13;;;;;;;8.15;100.00;99818.03;6287131;28;20045;-71
2021/11/01 21:54:04;;;;;;;2.75;1.10;;;;;;;8.14;100.00;99818.97;6290115;28;20075;-71
2021/11/01 21:57:09;;;;;;;2.20;1.38;;;;;;;8.12;100.00;99815.59;6292690;28;20048;-71
2021/11/01 22:00:23;;;;;;;4.53;1.35;;;;;;;8.09;100.00;99821.03;6298478;28;20131;-71
2021/11/01 22:10:31;;;;;;;1.77;0.98;;;;;;;8.18;100.00;99812.63;6298860;28;20119;-71
2021/11/01 22:17:11;;;;;;;5.07;1.13;;;;;;;8.28;100.00;99805.91;6298571;28;20056;-71
2021/11/01 22:20:15;;;;;;;1.27;0.70;;;;;;;8.31;100.00;99805.75;6298722;28;20045;-71
2021/11/01 22:23:28;;;;;;;1.65;0.57;;;;;;;8.35;100.00;99801.16;6298512;28;20122;-71
2021/11/01 22:26:44;;;;;;;1.55;0.45;;;;;;;8.32;100.00;99796.94;6298478;28;20545;-71
2021/11/01 22:39:48;;;;;;;1.95;0.70;;;;;;;8.44;100.00;99794.56;6273408;28;20053;-71
2021/11/01 22:42:55;;;;;;;1.00;0.82;;;;;;;8.46;100.00;99797.94;6273313;28;20488;-71
2021/11/01 22:46:09;;;;;;;2.70;0.80;;;;;;;8.48;100.00;99793.44;6273264;28;20056;-71
2021/11/01 22:55:56;;;;;;;0.55;0.55;;;;;;;8.53;100.00;99786.16;6272945;28;20426;-72
2021/11/01 22:58:58;;;;;;;1.70;0.68;;;;;;;8.52;100.00;99779.22;6272707;28;20064;-72
2021/11/01 23:02:00;;;;;;;1.88;0.90;;;;;;;8.60;100.00;99788.31;6272918;28;20056;-72
2021/11/01 23:05:10;;;;;;;1.85;1.48;;;;;;;8.61;100.00;99786.53;6290643;28;20063;-72
2021/11/01 23:31:32;;;;;;;1.20;0.80;;;;;;;8.30;100.00;99771.78;6272329;28;20068;-72
2021/11/01 23:34:33;;;;;;;1.23;0.73;;;;;;;8.30;100.00;99772.63;6272072;28;20056;-72
2021/11/01 23:37:35;;;;;;;3.30;0.65;;;;;;;8.27;100.00;99778.06;6271831;28;20049;-72
2021/11/01 23:40:37;;;;;;;5.65;0.85;;;;;;;8.25;100.00;99771.22;6272035;28;20048;-71
2021/11/01 23:43:40;;;;;;;0.50;0.50;;;;;;;8.23;100.00;99771.31;6271691;28;20048;-72
2021/11/01 23:46:41;;;;;;;2.67;1.00;;;;;;;8.21;100.00;99775.78;6271999;28;20041;-72
2021/11/01 23:49:42;;;;;;;4.90;1.00;;;;;;;8.17;100.00;99776.06;6271803;28;20056;-72
2021/11/01 23:52:55;;;;;;;1.20;1.00;;;;;;;8.16;100.00;99769.16;6271850;28;20056;-72
2021/11/01 23:55:57;;;;;;;1.02;0.73;;;;;;;8.15;100.00;99768.31;6278631;28;20198;-71
2021/11/01 23:58:58;;;;;;;5.28;0.90;;;;;;;8.16;100.00;99766.53;6296518;28;20051;-72
